Flight Track Log - Related Links

Times and Time Zones

All times are in EDT time to prevent confusion due to time zone crossing. See the RPA3419 flight status page for this flight to view local times or setup timezone preferences in your user account.

Time Position Orientation Groundspeed Altitude Reporting Facility
EDT Latitude Longitude Course Direction KTS MPH feet Rate Location/Type
Sat 04:27:53 PM 39.8667 -75.2667 194° South 140 161 700  Level Philadelphia TRACON
Sat 04:30:00 PM 39.5695 -75.3028 189° South  Level FlightAware Approximate
Sat 04:30:12 PM 39.7656 -75.3675 217° Southwest 204 235 5,900  Level Washington Center
Sat 04:31:00 PM 39.4680 -75.3273 194° South  Level FlightAware Approximate
Sat 04:31:12 PM 39.6967 -75.3811 189° South 244 281 9,600  Level Washington Center
Sat 04:32:00 PM 39.3655 -75.3409 185° South  Level FlightAware Approximate
Sat 04:32:11 PM 39.6194 -75.3572 167° South 257 296 12,000  Level Washington Center
Sat 04:33:00 PM 39.2631 -75.3567 194° South  Level FlightAware Approximate
Sat 04:33:12 PM 39.5361 -75.3386 170° South 283 326 13,300  Level Washington Center
Sat 04:34:09 PM 39.4569 -75.3361 179° South 294 338 15,800 1,322 Climbing Washington Center
Sat 04:35:10 PM 39.3736 -75.3500 187° South 294 338 15,900 492 Climbing Washington Center
Sat 04:36:11 PM 39.2925 -75.3664 189° South 294 338 16,800 595 Climbing Washington Center
Sat 04:37:11 PM 39.2111 -75.3800 187° South 294 338 17,100 1,488 Climbing Washington Center
Sat 04:38:12 PM 39.1258 -75.3936 187° South 299 344 19,800 2,750 Climbing Washington Center
Sat 04:39:11 PM 39.0361 -75.4072 187° South 311 358 22,600 2,600 Climbing Washington Center
Sat 04:40:12 PM 38.9486 -75.4236 188° South 317 365 25,000 2,182 Climbing Washington Center
Sat 04:41:12 PM 38.8569 -75.4317 184° South 323 372 27,000 1,831 Climbing Washington Center
Sat 04:42:10 PM 38.7653 -75.4506 189° South 335 386 28,600 1,664 Climbing Washington Center
Sat 04:43:11 PM 38.6672 -75.4614 185° South 346 398 30,300 1,412 Climbing Washington Center
Sat 04:44:09 PM 38.5692 -75.4747 186° South 356 410 31,400 1,059 Climbing Washington Center
Sat 04:45:10 PM 38.4650 -75.4936 188° South 368 423 32,400 885 Climbing Washington Center
Sat 04:46:11 PM 38.3628 -75.5122 188° South 380 437 33,200 1,328 Climbing Washington Center
Sat 04:47:12 PM 38.2692 -75.5811 210° Southwest 367 422 35,100 1,587 Climbing Washington Center
Sat 04:48:12 PM 38.1961 -75.6472 215° Southwest 341 392 36,400 1,210 Climbing Washington Center
Sat 04:49:11 PM 38.1231 -75.7158 216° Southwest 341 392 37,500 807 Climbing Washington Center
Sat 04:50:11 PM 38.0519 -75.7842 217° Southwest 329 379 38,000 248 Climbing Washington Center
Sat 04:51:12 PM 37.9811 -75.8472 215° Southwest 329 379 38,000  Level Washington Center
Sat 04:52:12 PM 37.9100 -75.9181 218° Southwest 329 379 38,000  Level Washington Center
Sat 04:53:10 PM 37.8389 -75.9836 216° Southwest 324 373 38,000  Level Washington Center
Sat 04:54:11 PM 37.7803 -76.0386 217° Southwest 324 373 38,000  Level Washington Center
Sat 04:55:12 PM 37.7047 -76.1167 219° Southwest 324 373 38,000  Level Washington Center
Sat 04:56:10 PM 37.6294 -76.1792 213° Southwest 324 373 38,000  Level Washington Center
Sat 04:57:11 PM 37.5561 -76.2467 216° Southwest 324 373 38,000  Level Washington Center
Sat 04:58:11 PM 37.4850 -76.3117 216° Southwest 324 373 38,000  Level Washington Center
Sat 04:59:12 PM 37.4114 -76.3789 216° Southwest 329 379 38,000  Level Washington Center
Sat 05:00:10 PM 37.3400 -76.4461 217° Southwest 329 379 38,000  Level Washington Center
Sat 05:01:11 PM 37.2667 -76.5106 215° Southwest 329 379 38,000  Level Washington Center
Sat 05:02:11 PM 37.1950 -76.5775 217° Southwest 329 379 38,000  Level Washington Center
Sat 05:03:10 PM 37.1217 -76.6442 216° Southwest 329 379 38,000  Level Washington Center
Sat 05:04:10 PM 37.0481 -76.7083 215° Southwest 329 379 38,000  Level Washington Center
Sat 05:05:11 PM 36.9744 -76.7747 216° Southwest 329 379 38,000  Level Washington Center
Sat 05:06:12 PM 36.9028 -76.8411 217° Southwest 329 379 38,000  Level Washington Center
Sat 05:07:10 PM 36.8289 -76.9075 216° Southwest 329 379 38,000  Level Washington Center
Sat 05:08:11 PM 36.7553 -76.9736 216° Southwest 335 386 38,000  Level Washington Center
Sat 05:09:12 PM 36.6836 -77.0422 218° Southwest 335 386 38,000  Level Washington Center
Sat 05:10:09 PM 36.6117 -77.1108 217° Southwest 335 386 38,000  Level Washington Center
Sat 05:11:10 PM 36.5378 -77.1767 216° Southwest 335 386 38,000  Level Washington Center
Sat 05:12:12 PM 36.4681 -77.2450 218° Southwest 330 380 38,000  Level Washington Center
Sat 05:13:12 PM 36.3961 -77.3106 216° Southwest 330 380 38,000  Level Washington Center
Sat 05:14:09 PM 36.3219 -77.3864 219° Southwest 325 374 38,000  Level Washington Center
Sat 05:15:10 PM 36.2500 -77.4517 216° Southwest 325 374 38,000  Level Washington Center
Sat 05:16:11 PM 36.1739 -77.5244 218° Southwest 320 368 38,000  Level Washington Center
Sat 05:17:10 PM 36.1019 -77.5894 216° Southwest 320 368 38,000  Level Washington Center
Sat 05:18:11 PM 36.0278 -77.6594 217° Southwest 331 381 38,000  Level Washington Center
Sat 05:19:11 PM 35.9514 -77.7267 215° Southwest 331 381 38,000  Level Washington Center
Sat 05:20:12 PM 35.8731 -77.7861 212° Southwest 337 388 38,000  Level Washington Center
Sat 05:21:10 PM 35.7947 -77.8506 214° Southwest 342 394 38,000  Level Washington Center
Sat 05:22:11 PM 35.7122 -77.9122 211° Southwest 347 399 38,000  Level Washington Center
Sat 05:23:11 PM 35.6336 -77.9764 214° Southwest 347 399 38,000  Level Washington Center
Sat 05:24:12 PM 35.5531 -78.0378 212° Southwest 352 405 38,000  Level Washington Center
Sat 05:25:10 PM 35.4747 -78.0967 211° Southwest 352 405 38,000  Level Washington Center
Sat 05:26:10 PM 35.3942 -78.1578 212° Southwest 352 405 38,000  Level Washington Center
Sat 05:27:11 PM 35.3178 -78.2189 213° Southwest 352 405 38,000  Level Washington Center
Sat 05:28:11 PM 35.2350 -78.2825 212° Southwest 352 405 38,000  Level Washington Center
Sat 05:29:11 PM 35.1542 -78.3458 213° Southwest 352 405 38,000  Level Washington Center
Sat 05:30:11 PM 35.0714 -78.4089 212° Southwest 352 405 38,000 -800 Level Washington Center
Sat 05:31:11 PM 34.9886 -78.4694 211° Southwest 352 405 36,400 -1,780 Descending Washington Center
Sat 05:32:09 PM 34.9075 -78.5350 214° Southwest 352 405 34,500 -1,700 Descending Washington Center
Sat 05:33:11 PM 34.8333 -78.5906 212° Southwest 352 405 33,000 -1,770 Descending Washington Center
Sat 05:34:11 PM 34.7503 -78.6556 213° Southwest 352 405 30,900 -1,124 Descending Washington Center
Sat 05:37:38 PM 34.4489 -78.8917 213° Southwest 344 396 28,000 -742 Descending Jacksonville Center
Sat 05:38:38 PM 34.3672 -78.9508 211° Southwest 354 407 27,600 -600 Descending Jacksonville Center
Sat 05:39:38 PM 34.2836 -79.0125 211° Southwest 354 407 26,800 -900 Descending Jacksonville Center
Sat 05:40:38 PM 34.1933 -79.0592 203° Southwest 359 413 25,800 -1,050 Descending Jacksonville Center
Sat 05:41:38 PM 34.1031 -79.1058 203° Southwest 359 413 24,700 -1,200 Descending Jacksonville Center
Sat 05:42:38 PM 34.0192 -79.1594 208° Southwest 354 407 23,400 -1,300 Descending Jacksonville Center
Sat 05:43:38 PM 33.9308 -79.2108 206° Southwest 354 407 22,100 -1,250 Descending Jacksonville Center
Sat 05:44:38 PM 33.8508 -79.2617 208° Southwest 344 396 20,900 -1,200 Descending Jacksonville Center
Sat 05:45:38 PM 33.7689 -79.3125 207° Southwest 339 390 19,700 -1,150 Descending Jacksonville Center
Sat 05:46:38 PM 33.6908 -79.3556 205° Southwest 329 379 18,600 -1,150 Descending Jacksonville Center
Sat 05:47:38 PM 33.6131 -79.4061 208° Southwest 317 365 17,400 -1,200 Descending Jacksonville Center
Sat 05:48:38 PM 33.5369 -79.4514 206° Southwest 317 365 16,200 -1,200 Descending Jacksonville Center
Sat 05:49:38 PM 33.4672 -79.4939 207° Southwest 312 359 15,000 -1,750 Descending Jacksonville Center
Sat 05:50:38 PM 33.3933 -79.5392 207° Southwest 301 346 12,700 -2,350 Descending Jacksonville Center
Sat 05:51:38 PM 33.3153 -79.5917 209° Southwest 307 353 10,300 -1,950 Descending Jacksonville Center
Sat 05:52:38 PM 33.2500 -79.6439 214° Southwest 302 348 8,800 -1,600 Descending Jacksonville Center
Sat 05:53:38 PM 33.1969 -79.6978 220° Southwest 278 320 7,100 -1,850 Descending Jacksonville Center
Sat 05:54:38 PM 33.1633 -79.7711 241° Southwest 250 288 5,100 -1,800 Descending Jacksonville Center
Sat 05:55:38 PM 33.1297 -79.8442 241° Southwest 255 293 3,500 -1,339 Descending Jacksonville Center
Sat 05:56:39 PM 33.0958 -79.9122 239° Southwest 255 293 2,400 -950 Descending Jacksonville Center
Sat 05:57:38 PM 33.0511 -79.9608 222° Southwest 240 276 1,600 -403 Descending Jacksonville Center
Sat 05:58:38 PM 33.0017 -79.9847 202° Southwest 212 244 1,600  Level Jacksonville Center

Login

Don't have an account? Register now (free) for customized features, flight alerts, and more!